Latest Weather Observations for Kurnell

IDN60901

Issued at 10:01 pm EST Friday 23 June 2017 (issued every 10 minutes, with the page automatically refreshed every 10 minutes)

About weather observations | Map of Sydney area stations | Latest observations for Sydney area | Other Formats
Station Details ID: 066043 Name: KURNELL AWS Lat: -34.00 Lon: 151.21 Height: 4.0 m
Data from the previous 72 hours. | See also: Recent months for locations in New South Wales
Date/Time
EST
Temp
°C
App
Temp
°C
Dew
Point
°C
Rel
Hum
%
Delta-T
°C
Wind Press
QNH
hPa
Press
MSL
hPa
Rain since
9am
mm
Dir  Spd
km/h
Gust
km/h
Spd
kts
Gust
kts
23/10:00pm - - - - - WNW 20 24 11 13 - - -
23/09:30pm - - - - - NW 22 26 12 14 - - -
23/09:00pm - - - - - NW 19 22 10 12 - - -
23/08:30pm - - - - - NW 17 19 9 10 - - -
23/08:00pm - - - - - WNW 15 17 8 9 - - -
23/07:30pm - - - - - NNW 13 17 7 9 - - -
23/07:00pm - - - - - NNW 13 15 7 8 - - -
23/06:30pm - - - - - NNW 11 13 6 7 - - -
23/06:00pm - - - - - WNW 11 15 6 8 - - -
23/05:30pm - - - - - W 13 17 7 9 - - -
23/05:00pm - - - - - W 11 13 6 7 - - -
23/04:30pm - - - - - SW 11 13 6 7 - - -
23/04:00pm - - - - - NW 15 17 8 9 - - -
23/03:30pm - - - - - NW 17 19 9 10 - - -
23/03:00pm - - - - - NNW 9 15 5 8 - - -
23/02:30pm - - - - - N 9 11 5 6 - - -
23/02:00pm - - - - - NW 11 15 6 8 - - -
23/01:30pm - - - - - NW 13 15 7 8 - - -
23/01:00pm - - - - - NW 17 22 9 12 - - -
23/12:30pm - - - - - NNW 13 17 7 9 - - -
23/12:00pm - - - - - NW 15 19 8 10 - - -
23/11:30am - - - - - NW 15 17 8 9 - - -
23/11:00am - - - - - NW 19 26 10 14 - - -
23/10:30am - - - - - NW 17 20 9 11 - - -
23/10:00am - - - - - NW 17 24 9 13 - - -
23/09:30am - - - - - NW 17 22 9 12 - - -
23/09:00am - - - - - NW 19 24 10 13 - - -
23/08:30am - - - - - NW 17 20 9 11 - - -
23/08:00am - - - - - NW 19 24 10 13 - - -
23/07:30am - - - - - WNW 22 26 12 14 - - -
23/07:00am - - - - - WNW 20 24 11 13 - - -
23/06:30am - - - - - WNW 17 20 9 11 - - -
23/06:00am - - - - - NW 20 24 11 13 - - -
23/05:30am - - - - - NW 17 20 9 11 - - -
23/05:00am - - - - - NW 19 24 10 13 - - -
23/04:30am - - - - - NNW 19 24 10 13 - - -
23/04:00am - - - - - NNW 17 22 9 12 - - -
23/03:30am - - - - - NNW 19 22 10 12 - - -
23/03:00am - - - - - NW 13 17 7 9 - - -
23/02:30am - - - - - NW 19 20 10 11 - - -
23/02:00am - - - - - NW 19 19 10 10 - - -
23/01:30am - - - - - NW 17 19 9 10 - - -
23/01:00am - - - - - NW 15 19 8 10 - - -
23/12:30am - - - - - NNW 13 17 7 9 - - -
23/12:00am - - - - - NNW 11 13 6 7 - - -
 
Date/Time
EST
Temp
°C
App
Temp
°C
Dew
Point
°C
Rel
Hum
%
Delta-T
°C
Wind Press
QNH
hPa
Press
MSL
hPa
Rain since
9am
mm
Dir  Spd
km/h
Gust
km/h
Spd
kts
Gust
kts
22/11:30pm - - - - - NW 15 17 8 9 - - -
22/11:00pm - - - - - WNW 11 17 6 9 - - -
22/10:30pm - - - - - WSW 7 11 4 6 - - -
22/10:00pm - - - - - CALM 0 0 0 0 - - -
22/09:30pm - - - - - CALM 0 0 0 0 - - -
22/09:00pm - - - - - W 6 7 3 4 - - -
22/08:30pm - - - - - CALM 0 0 0 0 - - -
22/08:00pm - - - - - CALM 0 0 0 0 - - -
22/07:30pm - - - - - CALM 0 7 0 4 - - -
22/07:00pm - - - - - CALM 0 0 0 0 - - -
22/06:30pm - - - - - ENE 4 7 2 4 - - -
22/06:00pm - - - - - E 9 11 5 6 - - -
22/05:30pm - - - - - ESE 7 7 4 4 - - -
22/05:00pm - - - - - SE 2 7 1 4 - - -
22/04:30pm - - - - - SSE 6 7 3 4 - - -
22/04:00pm - - - - - SE 4 9 2 5 - - -
22/03:30pm - - - - - S 7 9 4 5 - - -
22/03:00pm - - - - - SSE 9 13 5 7 - - -
22/02:30pm - - - - - SSE 11 15 6 8 - - -
22/02:00pm - - - - - S 11 17 6 9 - - -
22/01:30pm - - - - - S 15 20 8 11 - - -
22/01:00pm - - - - - S 17 24 9 13 - - -
22/12:30pm - - - - - SSW 20 26 11 14 - - -
22/12:00pm - - - - - SSW 17 26 9 14 - - -
22/11:30am - - - - - SW 20 28 11 15 - - -
22/11:00am - - - - - SSW 22 30 12 16 - - -
22/10:30am - - - - - SSW 22 28 12 15 - - -
22/10:00am - - - - - SSW 19 28 10 15 - - -
22/09:30am - - - - - SW 13 20 7 11 - - -
22/09:00am - - - - - NW 9 13 5 7 - - -
22/08:30am - - - - - WNW 11 13 6 7 - - -
22/08:00am - - - - - WNW 11 13 6 7 - - -
22/07:30am - - - - - WNW 9 11 5 6 - - -
22/07:00am - - - - - W 11 15 6 8 - - -
22/06:30am - - - - - WNW 15 19 8 10 - - -
22/06:00am - - - - - W 15 19 8 10 - - -
22/05:30am - - - - - WNW 17 19 9 10 - - -
22/05:00am - - - - - SW 19 28 10 15 - - -
22/04:30am - - - - - SSW 24 33 13 18 - - -
22/04:00am - - - - - SSW 26 35 14 19 - - -
22/03:30am - - - - - SSW 26 33 14 18 - - -
22/03:00am - - - - - SW 17 22 9 12 - - -
22/02:30am - - - - - SW 22 30 12 16 - - -
22/02:00am - - - - - WSW 19 26 10 14 - - -
22/01:30am - - - - - WSW 24 30 13 16 - - -
22/01:00am - - - - - SW 17 22 9 12 - - -
22/12:30am - - - - - SW 17 20 9 11 - - -
22/12:00am - - - - - WSW 17 20 9 11 - - -
 
Date/Time
EST
Temp
°C
App
Temp
°C
Dew
Point
°C
Rel
Hum
%
Delta-T
°C
Wind Press
QNH
hPa
Press
MSL
hPa
Rain since
9am
mm
Dir  Spd
km/h
Gust
km/h
Spd
kts
Gust
kts
21/11:30pm - - - - - WSW 15 19 8 10 - - -
21/11:00pm - - - - - WSW 17 20 9 11 - - -
21/10:30pm - - - - - WSW 17 20 9 11 - - -
21/10:00pm - - - - - W 15 20 8 11 - - -
21/09:30pm - - - - - SW 15 19 8 10 - - -
21/09:00pm - - - - - S 17 22 9 12 - - -
21/08:30pm - - - - - S 19 32 10 17 - - -
21/08:00pm - - - - - S 17 26 9 14 - - -
21/07:30pm - - - - - S 20 28 11 15 - - -
21/07:00pm - - - - - SSW 20 30 11 16 - - -
21/06:30pm - - - - - S 17 22 9 12 - - -
21/06:00pm - - - - - S 19 28 10 15 - - -
21/05:30pm - - - - - S 17 24 9 13 - - -
21/05:00pm - - - - - S 17 24 9 13 - - -
21/04:30pm - - - - - S 19 28 10 15 - - -
21/04:00pm - - - - - S 19 28 10 15 - - -
21/03:30pm - - - - - SSW 22 32 12 17 - - -
21/03:00pm - - - - - S 24 35 13 19 - - -
21/02:30pm - - - - - S 26 33 14 18 - - -
21/02:00pm - - - - - SSW 30 37 16 20 - - -
21/01:30pm - - - - - S 30 39 16 21 - - -
21/01:00pm - - - - - SSW 32 39 17 21 - - -
21/12:30pm - - - - - SSW 32 41 17 22 - - -
21/12:00pm - - - - - SSW 30 37 16 20 - - -
21/11:30am - - - - - SSW 30 43 16 23 - - -
21/11:00am - - - - - SSW 30 37 16 20 - - -
21/10:30am - - - - - SSW 28 35 15 19 - - -
21/10:00am - - - - - SW 22 35 12 19 - - -
21/09:30am - - - - - WNW 11 15 6 8 - - -
21/09:00am - - - - - NW 13 17 7 9 - - -
21/08:30am - - - - - NW 13 17 7 9 - - -
21/08:00am - - - - - NW 11 13 6 7 - - -
21/07:30am - - - - - WNW 13 15 7 8 - - -
21/07:00am - - - - - WNW 13 15 7 8 - - -
21/06:30am - - - - - WNW 15 17 8 9 - - -
21/06:00am - - - - - NW 13 17 7 9 - - -
21/05:30am - - - - - NW 17 20 9 11 - - -
21/05:00am - - - - - NW 13 15 7 8 - - -
21/04:30am - - - - - WNW 19 22 10 12 - - -
21/04:00am - - - - - WNW 19 20 10 11 - - -
21/03:30am - - - - - NW 19 22 10 12 - - -
21/03:00am - - - - - NW 19 20 10 11 - - -
21/02:30am - - - - - NW 17 19 9 10 - - -
21/02:00am - - - - - NNW 15 19 8 10 - - -
21/01:30am - - - - - N 13 15 7 8 - - -
21/01:00am - - - - - N 13 13 7 7 - - -
21/12:30am - - - - - NW 13 15 7 8 - - -
21/12:00am - - - - - WNW 17 19 9 10 - - -
 
Date/Time
EST
Temp
°C
App
Temp
°C
Dew
Point
°C
Rel
Hum
%
Delta-T
°C
Wind Press
QNH
hPa
Press
MSL
hPa
Rain since
9am
mm
Dir  Spd
km/h
Gust
km/h
Spd
kts
Gust
kts
20/11:30pm - - - - - WNW 15 19 8 10 - - -
20/11:00pm - - - - - W 11 13 6 7 - - -
20/10:30pm - - - - - NW 13 15 7 8 - - -

Latest Capital City Observations: Canberra | Sydney | Melbourne | Brisbane | Adelaide | Perth | Hobart | Darwin

Other Formats:

Comma delimited format used in spreadsheet applications
http://www.bom.gov.au/fwo/IDN60901/IDN60901.95756.axf

JavaScript Object Notation format (JSON) in row-major order
http://www.bom.gov.au/fwo/IDN60901/IDN60901.95756.json